sensor_id;sensor_type;location;lat;lon;timestamp;P1;durP1;ratioP1;P2;durP2;ratioP2
72113;SDS011;59989;46.220;19.888;2023-06-19T00:01:50;1.57;;;0.53;;
72113;SDS011;59989;46.220;19.888;2023-06-19T00:04:53;2.13;;;0.80;;
72113;SDS011;59989;46.220;19.888;2023-06-19T00:07:55;2.75;;;1.15;;
72113;SDS011;59989;46.220;19.888;2023-06-19T00:10:58;1.15;;;0.43;;
72113;SDS011;59989;46.220;19.888;2023-06-19T00:14:01;1.60;;;0.55;;
72113;SDS011;59989;46.220;19.888;2023-06-19T00:17:03;1.73;;;0.60;;
72113;SDS011;59989;46.220;19.888;2023-06-19T00:20:07;2.10;;;0.82;;
72113;SDS011;59989;46.220;19.888;2023-06-19T00:23:11;1.08;;;0.40;;
72113;SDS011;59989;46.220;19.888;2023-06-19T00:26:16;0.80;;;0.30;;
72113;SDS011;59989;46.220;19.888;2023-06-19T00:29:19;1.20;;;0.43;;
72113;SDS011;59989;46.220;19.888;2023-06-19T00:32:21;1.40;;;0.60;;
72113;SDS011;59989;46.220;19.888;2023-06-19T00:35:24;0.70;;;0.30;;
72113;SDS011;59989;46.220;19.888;2023-06-19T00:38:28;1.38;;;0.55;;
72113;SDS011;59989;46.220;19.888;2023-06-19T00:41:30;1.63;;;0.60;;
72113;SDS011;59989;46.220;19.888;2023-06-19T00:44:34;2.28;;;0.95;;
72113;SDS011;59989;46.220;19.888;2023-06-19T00:47:37;0.70;;;0.20;;
72113;SDS011;59989;46.220;19.888;2023-06-19T00:50:40;1.75;;;0.77;;
72113;SDS011;59989;46.220;19.888;2023-06-19T00:53:43;3.05;;;1.30;;
72113;SDS011;59989;46.220;19.888;2023-06-19T00:56:46;1.00;;;0.40;;
72113;SDS011;59989;46.220;19.888;2023-06-19T00:59:48;1.00;;;0.30;;
72113;SDS011;59989;46.220;19.888;2023-06-19T01:02:51;1.40;;;0.50;;
72113;SDS011;59989;46.220;19.888;2023-06-19T01:05:54;1.00;;;0.40;;
72113;SDS011;59989;46.220;19.888;2023-06-19T01:12:18;1.65;;;0.63;;
72113;SDS011;59989;46.220;19.888;2023-06-19T01:15:22;2.25;;;0.95;;
72113;SDS011;59989;46.220;19.888;2023-06-19T01:18:25;2.00;;;0.80;;
72113;SDS011;59989;46.220;19.888;2023-06-19T01:21:29;0.73;;;0.30;;
72113;SDS011;59989;46.220;19.888;2023-06-19T01:24:32;1.40;;;0.52;;
72113;SDS011;59989;46.220;19.888;2023-06-19T01:27:35;2.40;;;0.95;;
72113;SDS011;59989;46.220;19.888;2023-06-19T01:30:41;0.90;;;0.40;;
72113;SDS011;59989;46.220;19.888;2023-06-19T01:33:44;0.80;;;0.30;;
72113;SDS011;59989;46.220;19.888;2023-06-19T01:36:50;1.42;;;0.52;;
72113;SDS011;59989;46.220;19.888;2023-06-19T01:39:57;1.85;;;0.63;;
72113;SDS011;59989;46.220;19.888;2023-06-19T01:43:01;1.05;;;0.40;;
72113;SDS011;59989;46.220;19.888;2023-06-19T01:46:06;1.20;;;0.50;;
72113;SDS011;59989;46.220;19.888;2023-06-19T01:49:10;1.53;;;0.57;;
72113;SDS011;59989;46.220;19.888;2023-06-19T01:52:13;1.75;;;0.52;;
72113;SDS011;59989;46.220;19.888;2023-06-19T01:55:15;1.00;;;0.40;;
72113;SDS011;59989;46.220;19.888;2023-06-19T01:58:18;1.13;;;0.40;;
72113;SDS011;59989;46.220;19.888;2023-06-19T02:01:21;1.13;;;0.40;;
72113;SDS011;59989;46.220;19.888;2023-06-19T02:04:23;1.30;;;0.53;;
72113;SDS011;59989;46.220;19.888;2023-06-19T02:07:25;1.58;;;0.60;;
72113;SDS011;59989;46.220;19.888;2023-06-19T02:10:28;1.38;;;0.40;;
72113;SDS011;59989;46.220;19.888;2023-06-19T02:13:31;0.73;;;0.22;;
72113;SDS011;59989;46.220;19.888;2023-06-19T02:16:34;1.40;;;0.60;;
72113;SDS011;59989;46.220;19.888;2023-06-19T02:19:36;1.23;;;0.40;;
72113;SDS011;59989;46.220;19.888;2023-06-19T02:22:39;0.70;;;0.30;;
72113;SDS011;59989;46.220;19.888;2023-06-19T02:25:41;1.48;;;0.75;;
72113;SDS011;59989;46.220;19.888;2023-06-19T02:28:44;1.10;;;0.38;;
72113;SDS011;59989;46.220;19.888;2023-06-19T02:31:47;1.10;;;0.40;;
72113;SDS011;59989;46.220;19.888;2023-06-19T02:34:49;1.47;;;0.50;;
72113;SDS011;59989;46.220;19.888;2023-06-19T02:37:52;0.82;;;0.30;;
72113;SDS011;59989;46.220;19.888;2023-06-19T02:40:55;0.90;;;0.40;;
72113;SDS011;59989;46.220;19.888;2023-06-19T02:43:59;0.90;;;0.30;;
72113;SDS011;59989;46.220;19.888;2023-06-19T02:47:02;1.40;;;0.52;;
72113;SDS011;59989;46.220;19.888;2023-06-19T02:50:05;1.23;;;0.50;;
72113;SDS011;59989;46.220;19.888;2023-06-19T02:53:07;0.60;;;0.20;;
72113;SDS011;59989;46.220;19.888;2023-06-19T02:56:11;0.70;;;0.30;;
72113;SDS011;59989;46.220;19.888;2023-06-19T02:59:13;1.45;;;0.55;;
72113;SDS011;59989;46.220;19.888;2023-06-19T03:02:16;1.20;;;0.40;;
72113;SDS011;59989;46.220;19.888;2023-06-19T03:05:20;0.70;;;0.30;;
72113;SDS011;59989;46.220;19.888;2023-06-19T03:08:22;0.90;;;0.30;;
72113;SDS011;59989;46.220;19.888;2023-06-19T03:11:25;1.00;;;0.40;;
72113;SDS011;59989;46.220;19.888;2023-06-19T03:14:27;1.67;;;0.90;;
72113;SDS011;59989;46.220;19.888;2023-06-19T03:17:30;1.77;;;0.63;;
72113;SDS011;59989;46.220;19.888;2023-06-19T03:20:33;1.23;;;0.40;;
72113;SDS011;59989;46.220;19.888;2023-06-19T03:23:36;2.58;;;0.75;;
72113;SDS011;59989;46.220;19.888;2023-06-19T03:26:39;1.13;;;0.50;;
72113;SDS011;59989;46.220;19.888;2023-06-19T03:29:42;1.38;;;0.60;;
72113;SDS011;59989;46.220;19.888;2023-06-19T03:32:48;0.85;;;0.32;;
72113;SDS011;59989;46.220;19.888;2023-06-19T03:36:07;1.00;;;0.40;;
72113;SDS011;59989;46.220;19.888;2023-06-19T03:39:24;1.30;;;0.45;;
72113;SDS011;59989;46.220;19.888;2023-06-19T03:42:32;1.98;;;0.70;;
72113;SDS011;59989;46.220;19.888;2023-06-19T03:45:34;1.92;;;0.75;;
72113;SDS011;59989;46.220;19.888;2023-06-19T03:48:37;1.48;;;0.55;;
72113;SDS011;59989;46.220;19.888;2023-06-19T03:51:39;1.50;;;0.60;;
72113;SDS011;59989;46.220;19.888;2023-06-19T03:54:42;1.70;;;0.68;;
72113;SDS011;59989;46.220;19.888;2023-06-19T03:57:44;1.77;;;0.52;;
72113;SDS011;59989;46.220;19.888;2023-06-19T04:00:50;1.27;;;0.52;;
72113;SDS011;59989;46.220;19.888;2023-06-19T04:03:53;1.10;;;0.50;;
72113;SDS011;59989;46.220;19.888;2023-06-19T04:06:57;1.83;;;0.60;;
72113;SDS011;59989;46.220;19.888;2023-06-19T04:10:01;1.35;;;0.60;;
72113;SDS011;59989;46.220;19.888;2023-06-19T04:13:04;1.27;;;0.43;;
72113;SDS011;59989;46.220;19.888;2023-06-19T04:16:09;1.88;;;0.57;;
72113;SDS011;59989;46.220;19.888;2023-06-19T04:19:11;1.10;;;0.40;;
72113;SDS011;59989;46.220;19.888;2023-06-19T04:22:14;1.83;;;0.83;;
72113;SDS011;59989;46.220;19.888;2023-06-19T04:25:16;1.48;;;0.40;;
72113;SDS011;59989;46.220;19.888;2023-06-19T04:28:20;1.60;;;0.50;;
72113;SDS011;59989;46.220;19.888;2023-06-19T04:31:23;3.25;;;1.02;;
72113;SDS011;59989;46.220;19.888;2023-06-19T04:34:28;1.35;;;0.43;;
72113;SDS011;59989;46.220;19.888;2023-06-19T04:37:31;0.90;;;0.30;;
72113;SDS011;59989;46.220;19.888;2023-06-19T04:40:33;1.88;;;0.77;;
72113;SDS011;59989;46.220;19.888;2023-06-19T04:43:36;1.48;;;0.60;;
72113;SDS011;59989;46.220;19.888;2023-06-19T04:46:38;1.45;;;0.47;;
72113;SDS011;59989;46.220;19.888;2023-06-19T04:49:43;1.10;;;0.40;;
72113;SDS011;59989;46.220;19.888;2023-06-19T04:52:45;1.63;;;0.60;;
72113;SDS011;59989;46.220;19.888;2023-06-19T04:55:48;1.98;;;0.82;;
72113;SDS011;59989;46.220;19.888;2023-06-19T04:58:51;7.35;;;1.38;;
72113;SDS011;59989;46.220;19.888;2023-06-19T05:01:54;1.83;;;0.60;;
72113;SDS011;59989;46.220;19.888;2023-06-19T05:04:56;1.50;;;0.57;;
72113;SDS011;59989;46.220;19.888;2023-06-19T05:07:59;1.50;;;0.60;;
72113;SDS011;59989;46.220;19.888;2023-06-19T05:11:02;1.95;;;0.90;;
72113;SDS011;59989;46.220;19.888;2023-06-19T05:14:04;2.05;;;0.70;;
72113;SDS011;59989;46.220;19.888;2023-06-19T05:17:07;1.65;;;0.60;;
72113;SDS011;59989;46.220;19.888;2023-06-19T05:20:12;1.55;;;0.60;;
72113;SDS011;59989;46.220;19.888;2023-06-19T05:23:15;1.30;;;0.50;;
72113;SDS011;59989;46.220;19.888;2023-06-19T05:26:17;1.30;;;0.55;;
72113;SDS011;59989;46.220;19.888;2023-06-19T05:29:20;1.00;;;0.40;;
72113;SDS011;59989;46.220;19.888;2023-06-19T05:32:22;1.50;;;0.47;;
72113;SDS011;59989;46.220;19.888;2023-06-19T05:35:25;2.03;;;0.82;;
72113;SDS011;59989;46.220;19.888;2023-06-19T05:38:28;1.93;;;0.73;;
72113;SDS011;59989;46.220;19.888;2023-06-19T05:41:32;3.28;;;1.02;;
72113;SDS011;59989;46.220;19.888;2023-06-19T05:44:34;1.80;;;0.60;;
72113;SDS011;59989;46.220;19.888;2023-06-19T05:47:37;1.80;;;0.73;;
72113;SDS011;59989;46.220;19.888;2023-06-19T05:50:40;1.90;;;0.60;;
72113;SDS011;59989;46.220;19.888;2023-06-19T05:53:42;1.57;;;0.60;;
72113;SDS011;59989;46.220;19.888;2023-06-19T05:56:45;1.48;;;0.40;;
72113;SDS011;59989;46.220;19.888;2023-06-19T05:59:49;2.58;;;0.85;;
72113;SDS011;59989;46.220;19.888;2023-06-19T06:02:52;1.20;;;0.40;;
72113;SDS011;59989;46.220;19.888;2023-06-19T06:05:55;2.22;;;0.80;;
72113;SDS011;59989;46.220;19.888;2023-06-19T06:09:04;2.23;;;0.83;;
72113;SDS011;59989;46.220;19.888;2023-06-19T06:12:07;7.47;;;5.03;;
72113;SDS011;59989;46.220;19.888;2023-06-19T06:15:10;2.17;;;0.70;;
72113;SDS011;59989;46.220;19.888;2023-06-19T06:18:13;2.20;;;0.80;;
72113;SDS011;59989;46.220;19.888;2023-06-19T06:21:16;2.20;;;0.90;;
72113;SDS011;59989;46.220;19.888;2023-06-19T06:24:18;2.17;;;0.97;;
72113;SDS011;59989;46.220;19.888;2023-06-19T06:27:21;2.22;;;0.90;;
72113;SDS011;59989;46.220;19.888;2023-06-19T06:30:24;2.63;;;1.02;;
72113;SDS011;59989;46.220;19.888;2023-06-19T06:33:27;2.30;;;0.80;;
72113;SDS011;59989;46.220;19.888;2023-06-19T06:36:30;2.05;;;0.77;;
72113;SDS011;59989;46.220;19.888;2023-06-19T06:39:36;2.40;;;0.93;;
72113;SDS011;59989;46.220;19.888;2023-06-19T06:42:38;2.20;;;0.77;;
72113;SDS011;59989;46.220;19.888;2023-06-19T06:45:41;1.77;;;0.65;;
72113;SDS011;59989;46.220;19.888;2023-06-19T06:48:45;2.20;;;0.75;;
72113;SDS011;59989;46.220;19.888;2023-06-19T06:51:47;2.20;;;0.93;;
72113;SDS011;59989;46.220;19.888;2023-06-19T06:54:50;2.20;;;0.77;;
72113;SDS011;59989;46.220;19.888;2023-06-19T06:57:52;1.80;;;0.68;;
72113;SDS011;59989;46.220;19.888;2023-06-19T07:00:55;1.60;;;0.60;;
72113;SDS011;59989;46.220;19.888;2023-06-19T07:03:58;2.28;;;0.82;;
72113;SDS011;59989;46.220;19.888;2023-06-19T07:07:00;2.60;;;0.93;;
72113;SDS011;59989;46.220;19.888;2023-06-19T07:10:04;1.63;;;0.60;;
72113;SDS011;59989;46.220;19.888;2023-06-19T07:13:07;2.47;;;0.75;;
72113;SDS011;59989;46.220;19.888;2023-06-19T07:16:10;2.70;;;1.00;;
72113;SDS011;59989;46.220;19.888;2023-06-19T07:19:12;2.13;;;0.63;;
72113;SDS011;59989;46.220;19.888;2023-06-19T07:22:15;1.60;;;0.60;;
72113;SDS011;59989;46.220;19.888;2023-06-19T07:25:19;1.77;;;0.60;;
72113;SDS011;59989;46.220;19.888;2023-06-19T07:28:24;1.75;;;0.65;;
72113;SDS011;59989;46.220;19.888;2023-06-19T07:31:57;2.45;;;0.88;;
72113;SDS011;59989;46.220;19.888;2023-06-19T07:34:59;2.15;;;0.70;;
72113;SDS011;59989;46.220;19.888;2023-06-19T07:38:05;2.30;;;0.80;;
72113;SDS011;59989;46.220;19.888;2023-06-19T07:41:10;2.70;;;1.17;;
72113;SDS011;59989;46.220;19.888;2023-06-19T07:44:15;2.92;;;1.00;;
72113;SDS011;59989;46.220;19.888;2023-06-19T07:47:20;2.30;;;0.82;;
72113;SDS011;59989;46.220;19.888;2023-06-19T07:50:23;2.15;;;0.80;;
72113;SDS011;59989;46.220;19.888;2023-06-19T07:53:28;1.80;;;0.70;;
72113;SDS011;59989;46.220;19.888;2023-06-19T07:56:31;3.87;;;1.40;;
72113;SDS011;59989;46.220;19.888;2023-06-19T07:59:35;3.70;;;0.90;;
72113;SDS011;59989;46.220;19.888;2023-06-19T08:02:38;2.63;;;1.00;;
72113;SDS011;59989;46.220;19.888;2023-06-19T08:05:41;2.50;;;0.82;;
72113;SDS011;59989;46.220;19.888;2023-06-19T08:08:44;2.60;;;0.93;;
72113;SDS011;59989;46.220;19.888;2023-06-19T08:11:46;2.47;;;0.90;;
72113;SDS011;59989;46.220;19.888;2023-06-19T08:14:49;2.03;;;0.70;;
72113;SDS011;59989;46.220;19.888;2023-06-19T08:17:51;2.22;;;0.75;;
72113;SDS011;59989;46.220;19.888;2023-06-19T08:20:54;2.15;;;0.90;;
72113;SDS011;59989;46.220;19.888;2023-06-19T08:23:56;2.92;;;0.80;;
72113;SDS011;59989;46.220;19.888;2023-06-19T08:26:59;1.90;;;0.70;;
72113;SDS011;59989;46.220;19.888;2023-06-19T08:30:02;3.20;;;0.98;;
72113;SDS011;59989;46.220;19.888;2023-06-19T08:33:05;2.35;;;0.80;;
72113;SDS011;59989;46.220;19.888;2023-06-19T08:36:07;2.50;;;0.80;;
72113;SDS011;59989;46.220;19.888;2023-06-19T08:39:10;2.08;;;0.80;;
72113;SDS011;59989;46.220;19.888;2023-06-19T08:42:12;2.67;;;1.00;;
72113;SDS011;59989;46.220;19.888;2023-06-19T08:45:15;3.70;;;0.90;;
72113;SDS011;59989;46.220;19.888;2023-06-19T08:48:20;2.58;;;1.05;;
72113;SDS011;59989;46.220;19.888;2023-06-19T08:51:23;2.40;;;0.95;;
72113;SDS011;59989;46.220;19.888;2023-06-19T08:54:28;2.60;;;0.80;;
72113;SDS011;59989;46.220;19.888;2023-06-19T08:57:35;2.63;;;0.97;;
72113;SDS011;59989;46.220;19.888;2023-06-19T09:00:39;2.50;;;0.90;;
72113;SDS011;59989;46.220;19.888;2023-06-19T09:03:41;2.33;;;1.00;;
72113;SDS011;59989;46.220;19.888;2023-06-19T09:09:54;2.35;;;0.88;;
72113;SDS011;59989;46.220;19.888;2023-06-19T09:13:00;3.27;;;1.23;;
72113;SDS011;59989;46.220;19.888;2023-06-19T09:16:05;2.47;;;0.90;;
72113;SDS011;59989;46.220;19.888;2023-06-19T09:19:09;2.10;;;0.80;;
72113;SDS011;59989;46.220;19.888;2023-06-19T09:22:12;2.38;;;0.88;;
72113;SDS011;59989;46.220;19.888;2023-06-19T09:25:15;2.80;;;1.10;;
72113;SDS011;59989;46.220;19.888;2023-06-19T09:28:22;3.33;;;1.13;;
72113;SDS011;59989;46.220;19.888;2023-06-19T09:31:32;2.80;;;1.02;;
72113;SDS011;59989;46.220;19.888;2023-06-19T09:34:36;2.95;;;0.90;;
72113;SDS011;59989;46.220;19.888;2023-06-19T09:37:40;3.05;;;1.20;;
72113;SDS011;59989;46.220;19.888;2023-06-19T09:40:47;2.78;;;1.00;;
72113;SDS011;59989;46.220;19.888;2023-06-19T09:43:49;2.57;;;1.00;;
72113;SDS011;59989;46.220;19.888;2023-06-19T09:46:56;2.40;;;0.90;;
72113;SDS011;59989;46.220;19.888;2023-06-19T09:50:02;3.20;;;1.25;;
72113;SDS011;59989;46.220;19.888;2023-06-19T09:53:06;2.90;;;1.17;;
72113;SDS011;59989;46.220;19.888;2023-06-19T09:56:08;3.47;;;1.45;;
72113;SDS011;59989;46.220;19.888;2023-06-19T09:59:11;3.23;;;1.37;;
72113;SDS011;59989;46.220;19.888;2023-06-19T10:02:16;2.97;;;0.90;;
72113;SDS011;59989;46.220;19.888;2023-06-19T10:05:29;2.90;;;1.15;;
72113;SDS011;59989;46.220;19.888;2023-06-19T10:08:39;4.05;;;1.13;;
72113;SDS011;59989;46.220;19.888;2023-06-19T10:11:46;3.25;;;1.10;;
72113;SDS011;59989;46.220;19.888;2023-06-19T10:14:50;2.40;;;0.90;;
72113;SDS011;59989;46.220;19.888;2023-06-19T10:17:54;3.00;;;1.20;;
72113;SDS011;59989;46.220;19.888;2023-06-19T10:21:02;5.00;;;1.08;;
72113;SDS011;59989;46.220;19.888;2023-06-19T10:24:13;2.83;;;1.10;;
72113;SDS011;59989;46.220;19.888;2023-06-19T10:27:21;2.83;;;1.02;;
72113;SDS011;59989;46.220;19.888;2023-06-19T10:30:27;2.92;;;1.15;;
72113;SDS011;59989;46.220;19.888;2023-06-19T10:33:32;3.17;;;1.17;;
72113;SDS011;59989;46.220;19.888;2023-06-19T10:36:36;3.47;;;1.27;;
72113;SDS011;59989;46.220;19.888;2023-06-19T10:39:39;2.78;;;1.10;;
72113;SDS011;59989;46.220;19.888;2023-06-19T10:42:42;3.22;;;1.17;;
72113;SDS011;59989;46.220;19.888;2023-06-19T10:45:45;3.55;;;1.45;;
72113;SDS011;59989;46.220;19.888;2023-06-19T10:48:48;3.08;;;1.13;;
72113;SDS011;59989;46.220;19.888;2023-06-19T10:51:50;5.63;;;1.20;;
72113;SDS011;59989;46.220;19.888;2023-06-19T10:54:56;3.22;;;1.48;;
72113;SDS011;59989;46.220;19.888;2023-06-19T10:57:59;3.92;;;1.40;;
72113;SDS011;59989;46.220;19.888;2023-06-19T11:01:01;2.90;;;1.10;;
72113;SDS011;59989;46.220;19.888;2023-06-19T11:04:05;2.75;;;1.00;;
72113;SDS011;59989;46.220;19.888;2023-06-19T11:07:08;2.90;;;1.00;;
72113;SDS011;59989;46.220;19.888;2023-06-19T11:10:18;3.17;;;1.10;;
72113;SDS011;59989;46.220;19.888;2023-06-19T11:13:22;2.60;;;1.00;;
72113;SDS011;59989;46.220;19.888;2023-06-19T11:16:27;2.72;;;0.98;;
72113;SDS011;59989;46.220;19.888;2023-06-19T11:19:30;2.45;;;0.90;;
72113;SDS011;59989;46.220;19.888;2023-06-19T11:22:37;2.90;;;1.27;;
72113;SDS011;59989;46.220;19.888;2023-06-19T11:25:41;3.63;;;0.88;;
72113;SDS011;59989;46.220;19.888;2023-06-19T11:28:47;3.65;;;1.42;;
72113;SDS011;59989;46.220;19.888;2023-06-19T11:31:50;3.35;;;1.23;;
72113;SDS011;59989;46.220;19.888;2023-06-19T11:34:56;3.17;;;0.88;;
72113;SDS011;59989;46.220;19.888;2023-06-19T11:37:59;3.43;;;1.27;;
72113;SDS011;59989;46.220;19.888;2023-06-19T11:41:02;2.78;;;0.90;;
72113;SDS011;59989;46.220;19.888;2023-06-19T11:44:05;3.15;;;1.17;;
72113;SDS011;59989;46.220;19.888;2023-06-19T11:47:13;2.92;;;1.17;;
72113;SDS011;59989;46.220;19.888;2023-06-19T11:50:16;3.42;;;1.38;;
72113;SDS011;59989;46.220;19.888;2023-06-19T11:53:20;4.00;;;1.47;;
72113;SDS011;59989;46.220;19.888;2023-06-19T11:56:23;2.72;;;0.98;;
72113;SDS011;59989;46.220;19.888;2023-06-19T11:59:25;3.30;;;1.48;;
72113;SDS011;59989;46.220;19.888;2023-06-19T12:02:28;3.22;;;1.20;;
72113;SDS011;59989;46.220;19.888;2023-06-19T12:05:31;4.47;;;1.77;;
72113;SDS011;59989;46.220;19.888;2023-06-19T12:08:33;5.30;;;1.87;;
72113;SDS011;59989;46.220;19.888;2023-06-19T12:11:36;2.88;;;1.17;;
72113;SDS011;59989;46.220;19.888;2023-06-19T12:14:38;2.97;;;1.20;;
72113;SDS011;59989;46.220;19.888;2023-06-19T12:17:42;3.35;;;1.30;;
72113;SDS011;59989;46.220;19.888;2023-06-19T12:20:44;3.42;;;1.45;;
72113;SDS011;59989;46.220;19.888;2023-06-19T12:23:47;3.20;;;1.20;;
72113;SDS011;59989;46.220;19.888;2023-06-19T12:26:50;3.60;;;1.60;;
72113;SDS011;59989;46.220;19.888;2023-06-19T12:29:53;3.85;;;1.50;;
72113;SDS011;59989;46.220;19.888;2023-06-19T12:32:56;3.10;;;1.40;;
72113;SDS011;59989;46.220;19.888;2023-06-19T12:35:59;5.07;;;1.08;;
72113;SDS011;59989;46.220;19.888;2023-06-19T12:39:02;4.07;;;1.50;;
72113;SDS011;59989;46.220;19.888;2023-06-19T12:42:08;3.88;;;1.70;;
72113;SDS011;59989;46.220;19.888;2023-06-19T12:45:11;4.20;;;1.48;;
72113;SDS011;59989;46.220;19.888;2023-06-19T12:48:14;4.30;;;1.75;;
72113;SDS011;59989;46.220;19.888;2023-06-19T12:51:17;3.95;;;1.70;;
72113;SDS011;59989;46.220;19.888;2023-06-19T12:54:20;3.30;;;1.30;;
72113;SDS011;59989;46.220;19.888;2023-06-19T12:57:23;4.40;;;1.73;;
72113;SDS011;59989;46.220;19.888;2023-06-19T13:00:26;3.97;;;1.70;;
72113;SDS011;59989;46.220;19.888;2023-06-19T13:03:28;4.32;;;1.70;;
72113;SDS011;59989;46.220;19.888;2023-06-19T13:06:31;3.67;;;1.60;;
72113;SDS011;59989;46.220;19.888;2023-06-19T13:09:34;4.03;;;1.50;;
72113;SDS011;59989;46.220;19.888;2023-06-19T13:12:38;3.03;;;1.20;;
72113;SDS011;59989;46.220;19.888;2023-06-19T13:15:40;3.80;;;1.52;;
72113;SDS011;59989;46.220;19.888;2023-06-19T13:18:43;4.13;;;1.60;;
72113;SDS011;59989;46.220;19.888;2023-06-19T13:21:46;2.90;;;1.17;;
72113;SDS011;59989;46.220;19.888;2023-06-19T13:24:48;3.17;;;1.37;;
72113;SDS011;59989;46.220;19.888;2023-06-19T13:27:51;3.67;;;1.55;;
72113;SDS011;59989;46.220;19.888;2023-06-19T13:30:53;4.22;;;1.70;;
72113;SDS011;59989;46.220;19.888;2023-06-19T13:33:56;4.40;;;2.00;;
72113;SDS011;59989;46.220;19.888;2023-06-19T13:36:59;4.60;;;1.90;;
72113;SDS011;59989;46.220;19.888;2023-06-19T13:40:02;4.20;;;1.80;;
72113;SDS011;59989;46.220;19.888;2023-06-19T13:43:05;4.22;;;1.80;;
72113;SDS011;59989;46.220;19.888;2023-06-19T13:46:08;4.05;;;1.70;;
72113;SDS011;59989;46.220;19.888;2023-06-19T13:49:11;4.10;;;1.58;;
72113;SDS011;59989;46.220;19.888;2023-06-19T13:52:15;5.57;;;1.55;;
72113;SDS011;59989;46.220;19.888;2023-06-19T13:55:18;3.57;;;1.30;;
72113;SDS011;59989;46.220;19.888;2023-06-19T13:58:21;3.70;;;1.45;;
72113;SDS011;59989;46.220;19.888;2023-06-19T14:01:23;4.53;;;1.77;;
72113;SDS011;59989;46.220;19.888;2023-06-19T14:04:28;3.92;;;1.52;;
72113;SDS011;59989;46.220;19.888;2023-06-19T14:07:30;3.88;;;1.50;;
72113;SDS011;59989;46.220;19.888;2023-06-19T14:10:32;3.93;;;1.30;;
72113;SDS011;59989;46.220;19.888;2023-06-19T14:13:35;3.50;;;1.42;;
72113;SDS011;59989;46.220;19.888;2023-06-19T14:16:38;5.28;;;2.10;;
72113;SDS011;59989;46.220;19.888;2023-06-19T14:19:40;2.92;;;1.17;;
72113;SDS011;59989;46.220;19.888;2023-06-19T14:22:43;3.20;;;1.20;;
72113;SDS011;59989;46.220;19.888;2023-06-19T14:25:45;3.23;;;1.33;;
72113;SDS011;59989;46.220;19.888;2023-06-19T14:28:49;2.78;;;1.13;;
72113;SDS011;59989;46.220;19.888;2023-06-19T14:31:51;3.33;;;1.30;;
72113;SDS011;59989;46.220;19.888;2023-06-19T14:34:54;4.90;;;1.33;;
72113;SDS011;59989;46.220;19.888;2023-06-19T14:37:57;2.90;;;1.10;;
72113;SDS011;59989;46.220;19.888;2023-06-19T14:41:00;3.20;;;1.30;;
72113;SDS011;59989;46.220;19.888;2023-06-19T14:44:06;2.50;;;1.00;;
72113;SDS011;59989;46.220;19.888;2023-06-19T14:47:08;2.88;;;1.05;;
72113;SDS011;59989;46.220;19.888;2023-06-19T14:50:11;3.03;;;1.10;;
72113;SDS011;59989;46.220;19.888;2023-06-19T14:53:13;3.25;;;1.10;;
72113;SDS011;59989;46.220;19.888;2023-06-19T14:56:16;2.10;;;0.80;;
72113;SDS011;59989;46.220;19.888;2023-06-19T14:59:19;2.55;;;0.95;;
72113;SDS011;59989;46.220;19.888;2023-06-19T15:02:21;3.17;;;1.02;;
72113;SDS011;59989;46.220;19.888;2023-06-19T15:05:24;2.65;;;1.02;;
72113;SDS011;59989;46.220;19.888;2023-06-19T15:08:26;2.88;;;0.98;;
72113;SDS011;59989;46.220;19.888;2023-06-19T15:11:29;2.83;;;1.10;;
72113;SDS011;59989;46.220;19.888;2023-06-19T15:14:31;2.50;;;1.00;;
72113;SDS011;59989;46.220;19.888;2023-06-19T15:17:35;2.95;;;1.00;;
72113;SDS011;59989;46.220;19.888;2023-06-19T15:20:38;2.63;;;1.00;;
72113;SDS011;59989;46.220;19.888;2023-06-19T15:23:40;2.20;;;0.70;;
72113;SDS011;59989;46.220;19.888;2023-06-19T15:26:43;3.13;;;1.10;;
72113;SDS011;59989;46.220;19.888;2023-06-19T15:29:45;2.75;;;1.17;;
72113;SDS011;59989;46.220;19.888;2023-06-19T15:32:48;2.50;;;0.93;;
72113;SDS011;59989;46.220;19.888;2023-06-19T15:35:50;2.83;;;1.13;;
72113;SDS011;59989;46.220;19.888;2023-06-19T15:38:53;3.08;;;1.20;;
72113;SDS011;59989;46.220;19.888;2023-06-19T15:41:56;2.80;;;1.00;;
72113;SDS011;59989;46.220;19.888;2023-06-19T15:44:58;1.85;;;0.68;;
72113;SDS011;59989;46.220;19.888;2023-06-19T15:48:01;2.70;;;0.85;;
72113;SDS011;59989;46.220;19.888;2023-06-19T15:51:04;4.03;;;1.05;;
72113;SDS011;59989;46.220;19.888;2023-06-19T15:54:07;3.40;;;1.45;;
72113;SDS011;59989;46.220;19.888;2023-06-19T15:57:09;3.07;;;1.10;;
72113;SDS011;59989;46.220;19.888;2023-06-19T16:00:14;2.13;;;0.80;;
72113;SDS011;59989;46.220;19.888;2023-06-19T16:03:17;2.90;;;1.15;;
72113;SDS011;59989;46.220;19.888;2023-06-19T16:06:20;2.42;;;0.93;;
72113;SDS011;59989;46.220;19.888;2023-06-19T16:09:25;2.83;;;1.40;;
72113;SDS011;59989;46.220;19.888;2023-06-19T16:12:28;2.93;;;1.10;;
72113;SDS011;59989;46.220;19.888;2023-06-19T16:15:31;3.45;;;1.33;;
72113;SDS011;59989;46.220;19.888;2023-06-19T16:18:33;2.13;;;0.80;;
72113;SDS011;59989;46.220;19.888;2023-06-19T16:21:36;2.92;;;1.10;;
72113;SDS011;59989;46.220;19.888;2023-06-19T16:24:38;2.72;;;0.98;;
72113;SDS011;59989;46.220;19.888;2023-06-19T16:27:42;3.60;;;1.50;;
72113;SDS011;59989;46.220;19.888;2023-06-19T16:30:44;3.92;;;1.88;;
72113;SDS011;59989;46.220;19.888;2023-06-19T16:33:47;3.95;;;1.80;;
72113;SDS011;59989;46.220;19.888;2023-06-19T16:36:49;3.60;;;1.70;;
72113;SDS011;59989;46.220;19.888;2023-06-19T16:39:52;4.82;;;2.25;;
72113;SDS011;59989;46.220;19.888;2023-06-19T16:42:55;3.27;;;1.23;;
72113;SDS011;59989;46.220;19.888;2023-06-19T16:45:58;4.50;;;2.10;;
72113;SDS011;59989;46.220;19.888;2023-06-19T16:49:00;4.45;;;2.00;;
72113;SDS011;59989;46.220;19.888;2023-06-19T16:52:03;2.95;;;1.23;;
72113;SDS011;59989;46.220;19.888;2023-06-19T16:55:05;3.95;;;1.60;;
72113;SDS011;59989;46.220;19.888;2023-06-19T16:58:09;4.10;;;1.60;;
72113;SDS011;59989;46.220;19.888;2023-06-19T17:01:12;3.67;;;1.42;;
72113;SDS011;59989;46.220;19.888;2023-06-19T17:04:14;3.90;;;1.65;;
72113;SDS011;59989;46.220;19.888;2023-06-19T17:07:17;3.05;;;1.10;;
72113;SDS011;59989;46.220;19.888;2023-06-19T17:10:19;2.85;;;1.05;;
72113;SDS011;59989;46.220;19.888;2023-06-19T17:13:23;3.30;;;1.20;;
72113;SDS011;59989;46.220;19.888;2023-06-19T17:16:26;3.08;;;1.10;;
72113;SDS011;59989;46.220;19.888;2023-06-19T17:19:28;2.47;;;0.93;;
72113;SDS011;59989;46.220;19.888;2023-06-19T17:22:31;2.47;;;1.00;;
72113;SDS011;59989;46.220;19.888;2023-06-19T17:25:33;2.55;;;0.90;;
72113;SDS011;59989;46.220;19.888;2023-06-19T17:28:36;2.67;;;1.00;;
72113;SDS011;59989;46.220;19.888;2023-06-19T17:31:38;2.67;;;1.15;;
72113;SDS011;59989;46.220;19.888;2023-06-19T17:34:42;3.40;;;1.23;;
72113;SDS011;59989;46.220;19.888;2023-06-19T17:37:44;2.75;;;0.93;;
72113;SDS011;59989;46.220;19.888;2023-06-19T17:40:48;2.75;;;0.95;;
72113;SDS011;59989;46.220;19.888;2023-06-19T17:43:50;3.17;;;1.20;;
72113;SDS011;59989;46.220;19.888;2023-06-19T17:46:53;2.33;;;0.80;;
72113;SDS011;59989;46.220;19.888;2023-06-19T17:49:55;2.58;;;1.00;;
72113;SDS011;59989;46.220;19.888;2023-06-19T17:52:58;2.63;;;0.90;;
72113;SDS011;59989;46.220;19.888;2023-06-19T17:56:00;2.97;;;1.13;;
72113;SDS011;59989;46.220;19.888;2023-06-19T17:59:06;3.13;;;1.03;;
72113;SDS011;59989;46.220;19.888;2023-06-19T18:02:09;2.28;;;0.77;;
72113;SDS011;59989;46.220;19.888;2023-06-19T18:05:11;3.30;;;1.25;;
72113;SDS011;59989;46.220;19.888;2023-06-19T18:08:14;2.78;;;1.25;;
72113;SDS011;59989;46.220;19.888;2023-06-19T18:11:17;2.92;;;1.00;;
72113;SDS011;59989;46.220;19.888;2023-06-19T18:14:19;2.97;;;1.10;;